• Join FlightAware (Why Join?)
  • Login
  • US Flag 
02:35PM EDT


 

Airport Tracker/Info


-or-


 

Live Flight TrackerFlight Track Log ✈ SWA738 ✈ 30-Jan-2014 ✈ KMDW - KBWI

Flight Track Log - Related Links

Times and Time Zones

All times are in EST time to prevent confusion due to time zone crossing. See the SWA738 flight status page for this flight to view local times or setup timezone preferences in your user account.

Time Position Orientation Groundspeed Altitude Reporting Facility
EST Latitude Longitude Course Direction KTS MPH feet Rate Location/Type
09:53PM 41.8333 -87.7500 90° East 219 252 3,000  Level Chicago TRACON
09:54PM 41.8333 -87.6667 90° East 245 282 3,400 1,920 Climbing Chicago TRACON
09:55PM 41.8078 -87.5228 103° East 327 376 7,600 3,240 Climbing Chicago Center
09:56PM 41.7928 -87.3989 99° East 325 374 11,600 3,300 Climbing Chicago Center
09:57PM 41.7814 -87.2681 97° East 350 403 14,400 2,700 Climbing Chicago Center
09:58PM 41.7500 -86.8412 90° East  Level FlightAware Approximate
09:58PM 41.7675 -87.1200 97° East 398 458 17,100  Level Chicago Center
09:59PM 41.7628 -86.9586 92° East 434 499 19,800 2,340 Climbing Chicago Center
10:00PM 41.7653 -86.7819 89° East 470 541 22,000 2,340 Climbing Chicago Center
10:01PM 41.7672 -86.5958 89° East 497 572 24,600 2,340 Climbing Chicago Center
10:02PM 41.7678 -86.4069 90° East 507 583 26,800 2,220 Climbing Chicago Center
10:03PM 41.7600 -86.1731 92° East 524 603 29,200 2,040 Climbing Chicago Center
10:04PM 41.7475 -85.9728 95° East 537 618 31,100 1,680 Climbing Chicago Center
10:05PM 41.7344 -85.7672 95° East 548 631 32,700 1,680 Climbing Chicago Center
10:06PM 41.7206 -85.5611 95° East 552 635 34,600 1,680 Climbing Chicago Center
10:07PM 41.7086 -85.3747 95° East 551 634 36,200 1,680 Climbing Chicago Center
10:08PM 41.6931 -85.1442 95° East 546 628 38,100 1,320 Climbing Chicago Center
10:09PM 41.6789 -84.9442 95° East 542 624 39,000 420 Climbing Chicago Center
10:10PM 41.6642 -84.7433 96° East 542 624 39,000  Level Chicago Center
10:11PM 41.6361 -84.5483 101° East 539 620 39,000  Level Chicago Center
10:12PM 41.5728 -84.3728 116° Southeast 526 605 39,000  Level Chicago Center
10:13PM 41.5069 -84.1972 117° Southeast 527 606 39,000  Level Chicago Center
10:15PM 41.4400 -84.0203 117° Southeast 534 615 39,000  Level Chicago Center
10:16PM 41.3750 -83.8442 116° Southeast 533 613 39,000  Level Chicago Center
10:17PM 41.3092 -83.6697 117° Southeast 530 610 39,000  Level Chicago Center
10:17PM 41.2725 -83.5728 117° Southeast 530 610 39,000  Level Cleveland Center
10:18PM 41.2075 -83.3994 116° Southeast 530 610 39,000  Level Cleveland Center
10:19PM 41.1431 -83.2261 116° Southeast 530 610 39,000  Level Cleveland Center
10:20PM 41.0722 -83.0436 117° Southeast 529 609 39,000  Level Cleveland Center
10:21PM 41.0058 -82.8706 117° Southeast 527 606 39,000  Level Cleveland Center
10:22PM 40.9731 -82.7831 116° Southeast 527 606 39,000  Level Cleveland Center
10:23PM 40.9064 -82.6117 117° Southeast 526 605 39,000  Level Cleveland Center
10:24PM 40.8375 -82.4392 118° Southeast 525 604 39,000  Level Indianapolis Center
10:26PM 40.7033 -82.0981 117° Southeast 525 604 39,000  Level Cleveland Center
10:27PM 40.6356 -81.9269 118° Southeast 524 603 39,000  Level Cleveland Center
10:28PM 40.5678 -81.7564 118° Southeast 524 603 39,000  Level Cleveland Center
10:29PM 40.4994 -81.5878 118° Southeast 524 603 39,000  Level Cleveland Center
10:30PM 40.4361 -81.3878 113° Southeast 524 603 39,000  Level Cleveland Center
10:31PM 40.3783 -81.2119 113° Southeast 525 604 39,000  Level Cleveland Center
10:32PM 40.3211 -81.0369 113° Southeast 525 604 39,000  Level Cleveland Center
10:33PM 40.2647 -80.8642 113° Southeast 524 603 39,000  Level Cleveland Center
10:34PM 40.2075 -80.6933 114° Southeast 523 602 39,000 -360 Level Cleveland Center
10:35PM 40.1511 -80.5231 113° Southeast 520 598 38,300 -540 Descending Cleveland Center
10:36PM 40.0944 -80.3558 114° Southeast 513 590 38,000 -180 Descending Cleveland Center
10:37PM 40.0269 -80.1542 114° Southeast 513 590 38,000 -420 Level Cleveland Center
10:38PM 39.9708 -79.9875 114° Southeast 512 589 37,200 -1,680 Descending Cleveland Center
10:39PM 39.9125 -79.8214 115° Southeast 510 587 34,600 -2,460 Descending Cleveland Center
10:40PM 39.8558 -79.6539 114° Southeast 509 586 32,300 -2,220 Descending Cleveland Center
10:41PM 39.8000 -79.4914 114° Southeast 499 574 30,100 -2,160 Descending Cleveland Center
10:42PM 39.7450 -79.3353 115° Southeast 483 556 28,000 -2,040 Descending Cleveland Center
10:43PM 39.6925 -79.1808 114° Southeast 472 543 26,000 -1,500 Descending Cleveland Center
10:44PM 39.6467 -79.0319 112° Southeast 452 520 25,000 -720 Descending Cleveland Center
10:45PM 39.6122 -78.8664 105° East 446 513 24,600 -1,380 Descending Cleveland Center
10:46PM 39.5739 -78.6903 106° East 441 507 22,200 -2,100 Descending Washington Center
10:47PM 39.5400 -78.5408 106° East 428 493 20,300 -1,920 Descending Washington Center
10:48PM 39.5081 -78.3969 106° East 421 484 18,400 -1,920 Descending Washington Center
10:49PM 39.4758 -78.2558 106° East 416 479 16,500 -1,800 Descending Washington Center
10:50PM 39.4456 -78.1125 105° East 416 479 14,900 -840 Descending Washington Center
10:51PM 39.4206 -78.0067 107° East 401 461 14,900  Level Washington Center
10:52PM 39.3881 -77.8686 107° East 380 437 14,900  Level Washington Center
10:53PM 39.3967 -77.7347 85° East 363 418 14,900 -660 Level Washington Center
10:54PM 39.4156 -77.6036 79° East 363 418 13,600 -1,500 Descending Washington Center
10:55PM 39.4322 -77.4750 80° East 368 423 12,000 -1,320 Descending Washington Center
10:56PM 39.4467 -77.3519 81° East 368 423 11,000 -540 Descending Washington Center
10:57PM 39.4608 -77.2311 81° East 348 400 11,000 -600 Level Washington Center
10:58PM 39.4644 -77.1022 88° East 331 381 9,800 -1,620 Descending Washington Center
10:59PM 39.3667 -77.0167 146° Southeast 251 289 7,300 -2,040 Descending Potomac TRACON
11:00PM 39.3167 -76.9833 153° Southeast 247 284 5,200 -1,920 Descending Potomac TRACON
11:01PM 39.2500 -76.9500 159° South 225 259 3,500 -1,440 Descending Potomac TRACON
11:02PM 39.2167 -76.8833 123° Southeast 212 244 2,400 -900 Descending Potomac TRACON
11:03PM 39.2000 -76.8167 108° East 179 206 1,700 -540 Descending Potomac TRACON
11:04PM 39.1833 -76.7667 113° Southeast 135 155 1,400 -420 Descending Potomac TRACON
11:05PM 39.1833 -76.7333 90° East 134 154 900 -540 Descending Potomac TRACON
11:07PM 39.1667 -76.6667 103° East  Level FlightAware Approximate
11:14PM 39.1754 -76.6683 103° East  Level Estimated
11:15PM 39.1754 -76.6683 103° East  Level Estimated
11:16PM 39.1754 -76.6683 103° East  Level Estimated
11:17PM 39.1754 -76.6683 103° East  Level Estimated
11:18PM 39.1754 -76.6683 103° East  Level Estimated